Andrews Air Force Base, Maryland
Current Conditions -  °F | °C
As of 6:58 PM on Wednesday 26 Nov 2014 (Local Time) from KADW Reporting Station
Clear Clear  
Wind Chill: 28°   Ceiling: Unl
Heat Index: 36°   Visibility: 10mi
Dew Point: 34°   Wind: 12mph
Humidity: 91%   Direction: 330°NNW
Pressure: 29.93"   Gusts: NA
Location:  38.8062°N, 76.8756°W
Report Text: KADW 262358Z AUTO 33010KT 10SM CLR 02/01 A2993 RMK AO2 RAE2304B2340E2342DZB2304E2321B2342 SLP144 P0000 60016 T00220009 10022 20007 50007 $
Loading
Personal Weather Stations






























Interactive Weather Map New forecast layout! Learn more

10-Day Weather Forecast

Advertisements
Track Severe Weather on mobile